sensor_id;sensor_type;location;lat;lon;timestamp;P1;durP1;ratioP1;P2;durP2;ratioP2
11222;SDS011;5668;52.012;8.724;2022-07-22T00:01:53;13.63;;;12.43;;
11222;SDS011;5668;52.012;8.724;2022-07-22T00:04:21;13.88;;;12.68;;
11222;SDS011;5668;52.012;8.724;2022-07-22T00:06:48;13.95;;;12.75;;
11222;SDS011;5668;52.012;8.724;2022-07-22T00:09:15;12.65;;;11.65;;
11222;SDS011;5668;52.012;8.724;2022-07-22T00:11:43;13.32;;;12.13;;
11222;SDS011;5668;52.012;8.724;2022-07-22T00:14:10;12.20;;;11.20;;
11222;SDS011;5668;52.012;8.724;2022-07-22T00:16:38;11.35;;;10.35;;
11222;SDS011;5668;52.012;8.724;2022-07-22T00:19:06;10.75;;;9.82;;
11222;SDS011;5668;52.012;8.724;2022-07-22T00:21:34;10.82;;;9.93;;
11222;SDS011;5668;52.012;8.724;2022-07-22T00:24:01;10.18;;;9.27;;
11222;SDS011;5668;52.012;8.724;2022-07-22T00:26:28;9.85;;;9.05;;
11222;SDS011;5668;52.012;8.724;2022-07-22T00:28:56;9.40;;;8.70;;
11222;SDS011;5668;52.012;8.724;2022-07-22T00:31:23;9.85;;;8.95;;
11222;SDS011;5668;52.012;8.724;2022-07-22T00:33:50;9.30;;;8.60;;
11222;SDS011;5668;52.012;8.724;2022-07-22T00:36:19;9.48;;;8.57;;
11222;SDS011;5668;52.012;8.724;2022-07-22T00:38:46;9.48;;;8.77;;
11222;SDS011;5668;52.012;8.724;2022-07-22T00:41:13;10.20;;;9.30;;
11222;SDS011;5668;52.012;8.724;2022-07-22T00:43:54;7.68;;;6.82;;
11222;SDS011;5668;52.012;8.724;2022-07-22T00:46:24;6.97;;;6.38;;
11222;SDS011;5668;52.012;8.724;2022-07-22T00:48:52;7.35;;;6.75;;
11222;SDS011;5668;52.012;8.724;2022-07-22T00:51:21;5.95;;;5.43;;
11222;SDS011;5668;52.012;8.724;2022-07-22T00:53:50;5.28;;;4.78;;
11222;SDS011;5668;52.012;8.724;2022-07-22T00:56:18;4.63;;;4.22;;
11222;SDS011;5668;52.012;8.724;2022-07-22T00:58:47;4.57;;;3.97;;
11222;SDS011;5668;52.012;8.724;2022-07-22T01:01:17;4.28;;;3.88;;
11222;SDS011;5668;52.012;8.724;2022-07-22T01:03:44;4.05;;;3.22;;
11222;SDS011;5668;52.012;8.724;2022-07-22T01:06:11;4.05;;;3.65;;
11222;SDS011;5668;52.012;8.724;2022-07-22T01:08:40;3.67;;;3.03;;
11222;SDS011;5668;52.012;8.724;2022-07-22T01:11:08;3.20;;;2.90;;
11222;SDS011;5668;52.012;8.724;2022-07-22T01:13:38;3.00;;;2.80;;
11222;SDS011;5668;52.012;8.724;2022-07-22T01:16:06;3.30;;;3.00;;
11222;SDS011;5668;52.012;8.724;2022-07-22T01:18:35;2.88;;;2.60;;
11222;SDS011;5668;52.012;8.724;2022-07-22T01:21:05;3.42;;;3.10;;
11222;SDS011;5668;52.012;8.724;2022-07-22T01:23:34;2.97;;;2.60;;
11222;SDS011;5668;52.012;8.724;2022-07-22T01:26:02;2.58;;;2.17;;
11222;SDS011;5668;52.012;8.724;2022-07-22T01:28:30;2.55;;;2.35;;
11222;SDS011;5668;52.012;8.724;2022-07-22T01:30:58;3.13;;;2.03;;
11222;SDS011;5668;52.012;8.724;2022-07-22T01:33:25;2.72;;;2.20;;
11222;SDS011;5668;52.012;8.724;2022-07-22T01:35:52;3.55;;;2.22;;
11222;SDS011;5668;52.012;8.724;2022-07-22T01:38:21;6.10;;;2.75;;
11222;SDS011;5668;52.012;8.724;2022-07-22T01:40:49;3.58;;;3.15;;
11222;SDS011;5668;52.012;8.724;2022-07-22T01:43:16;3.20;;;2.90;;
11222;SDS011;5668;52.012;8.724;2022-07-22T01:45:46;5.30;;;3.63;;
11222;SDS011;5668;52.012;8.724;2022-07-22T01:48:16;4.90;;;3.33;;
11222;SDS011;5668;52.012;8.724;2022-07-22T01:50:43;4.47;;;3.75;;
11222;SDS011;5668;52.012;8.724;2022-07-22T01:53:11;4.18;;;3.15;;
11222;SDS011;5668;52.012;8.724;2022-07-22T01:55:40;3.40;;;3.10;;
11222;SDS011;5668;52.012;8.724;2022-07-22T01:58:08;3.90;;;3.20;;
11222;SDS011;5668;52.012;8.724;2022-07-22T02:00:35;3.20;;;2.85;;
11222;SDS011;5668;52.012;8.724;2022-07-22T02:03:03;3.75;;;3.45;;
11222;SDS011;5668;52.012;8.724;2022-07-22T02:05:31;3.35;;;3.05;;
11222;SDS011;5668;52.012;8.724;2022-07-22T02:07:59;3.55;;;3.03;;
11222;SDS011;5668;52.012;8.724;2022-07-22T02:10:27;3.55;;;3.13;;
11222;SDS011;5668;52.012;8.724;2022-07-22T02:12:56;4.53;;;3.38;;
11222;SDS011;5668;52.012;8.724;2022-07-22T02:15:24;3.20;;;2.90;;
11222;SDS011;5668;52.012;8.724;2022-07-22T02:17:52;3.45;;;3.00;;
11222;SDS011;5668;52.012;8.724;2022-07-22T02:20:20;3.35;;;2.95;;
11222;SDS011;5668;52.012;8.724;2022-07-22T02:22:47;3.60;;;3.15;;
11222;SDS011;5668;52.012;8.724;2022-07-22T02:25:15;5.55;;;2.83;;
11222;SDS011;5668;52.012;8.724;2022-07-22T02:27:42;3.50;;;3.20;;
11222;SDS011;5668;52.012;8.724;2022-07-22T02:30:11;3.65;;;3.35;;
11222;SDS011;5668;52.012;8.724;2022-07-22T02:32:38;3.80;;;3.30;;
11222;SDS011;5668;52.012;8.724;2022-07-22T02:35:06;5.88;;;2.92;;
11222;SDS011;5668;52.012;8.724;2022-07-22T02:37:34;5.32;;;3.00;;
11222;SDS011;5668;52.012;8.724;2022-07-22T02:40:02;3.30;;;2.58;;
11222;SDS011;5668;52.012;8.724;2022-07-22T02:42:31;5.20;;;3.00;;
11222;SDS011;5668;52.012;8.724;2022-07-22T02:44:58;3.55;;;3.25;;
11222;SDS011;5668;52.012;8.724;2022-07-22T02:47:27;3.30;;;3.00;;
11222;SDS011;5668;52.012;8.724;2022-07-22T02:49:54;4.60;;;3.38;;
11222;SDS011;5668;52.012;8.724;2022-07-22T02:52:21;3.95;;;3.25;;
11222;SDS011;5668;52.012;8.724;2022-07-22T02:54:49;4.57;;;3.42;;
11222;SDS011;5668;52.012;8.724;2022-07-22T02:57:16;3.42;;;3.13;;
11222;SDS011;5668;52.012;8.724;2022-07-22T02:59:43;4.07;;;3.33;;
11222;SDS011;5668;52.012;8.724;2022-07-22T03:02:11;4.22;;;3.63;;
11222;SDS011;5668;52.012;8.724;2022-07-22T03:04:39;5.28;;;3.83;;
11222;SDS011;5668;52.012;8.724;2022-07-22T03:07:06;4.68;;;3.60;;
11222;SDS011;5668;52.012;8.724;2022-07-22T03:09:33;4.82;;;3.90;;
11222;SDS011;5668;52.012;8.724;2022-07-22T03:12:01;4.00;;;3.60;;
11222;SDS011;5668;52.012;8.724;2022-07-22T03:14:28;6.63;;;3.35;;
11222;SDS011;5668;52.012;8.724;2022-07-22T03:16:55;4.07;;;3.30;;
11222;SDS011;5668;52.012;8.724;2022-07-22T03:19:22;3.97;;;3.08;;
11222;SDS011;5668;52.012;8.724;2022-07-22T03:21:51;5.43;;;2.53;;
11222;SDS011;5668;52.012;8.724;2022-07-22T03:24:18;4.65;;;2.30;;
11222;SDS011;5668;52.012;8.724;2022-07-22T03:26:46;2.83;;;2.13;;
11222;SDS011;5668;52.012;8.724;2022-07-22T03:29:13;4.35;;;2.30;;
11222;SDS011;5668;52.012;8.724;2022-07-22T03:31:40;2.30;;;2.05;;
11222;SDS011;5668;52.012;8.724;2022-07-22T03:34:07;3.50;;;1.90;;
11222;SDS011;5668;52.012;8.724;2022-07-22T03:36:34;3.45;;;1.85;;
11222;SDS011;5668;52.012;8.724;2022-07-22T03:39:03;4.85;;;2.30;;
11222;SDS011;5668;52.012;8.724;2022-07-22T03:41:30;4.00;;;2.38;;
11222;SDS011;5668;52.012;8.724;2022-07-22T03:43:58;2.25;;;1.80;;
11222;SDS011;5668;52.012;8.724;2022-07-22T03:46:25;3.28;;;1.95;;
11222;SDS011;5668;52.012;8.724;2022-07-22T03:48:52;3.47;;;1.90;;
11222;SDS011;5668;52.012;8.724;2022-07-22T03:51:19;3.80;;;1.70;;
11222;SDS011;5668;52.012;8.724;2022-07-22T03:53:46;4.63;;;2.05;;
11222;SDS011;5668;52.012;8.724;2022-07-22T03:56:15;2.20;;;1.80;;
11222;SDS011;5668;52.012;8.724;2022-07-22T03:58:42;3.20;;;1.80;;
11222;SDS011;5668;52.012;8.724;2022-07-22T04:01:09;3.28;;;1.75;;
11222;SDS011;5668;52.012;8.724;2022-07-22T04:03:37;3.13;;;1.63;;
11222;SDS011;5668;52.012;8.724;2022-07-22T04:06:04;4.10;;;1.70;;
11222;SDS011;5668;52.012;8.724;2022-07-22T04:08:32;2.30;;;1.50;;
11222;SDS011;5668;52.012;8.724;2022-07-22T04:10:59;3.55;;;1.70;;
11222;SDS011;5668;52.012;8.724;2022-07-22T04:13:28;2.13;;;1.67;;
11222;SDS011;5668;52.012;8.724;2022-07-22T04:15:55;3.97;;;1.70;;
11222;SDS011;5668;52.012;8.724;2022-07-22T04:18:22;3.28;;;1.50;;
11222;SDS011;5668;52.012;8.724;2022-07-22T04:20:50;3.60;;;1.50;;
11222;SDS011;5668;52.012;8.724;2022-07-22T04:23:17;6.25;;;1.50;;
11222;SDS011;5668;52.012;8.724;2022-07-22T04:25:44;2.05;;;1.33;;
11222;SDS011;5668;52.012;8.724;2022-07-22T04:28:12;4.35;;;1.73;;
11222;SDS011;5668;52.012;8.724;2022-07-22T04:30:40;3.22;;;1.58;;
11222;SDS011;5668;52.012;8.724;2022-07-22T04:33:07;4.53;;;2.10;;
11222;SDS011;5668;52.012;8.724;2022-07-22T04:35:35;4.85;;;1.63;;
11222;SDS011;5668;52.012;8.724;2022-07-22T04:38:02;5.15;;;1.75;;
11222;SDS011;5668;52.012;8.724;2022-07-22T04:40:30;4.40;;;1.70;;
11222;SDS011;5668;52.012;8.724;2022-07-22T04:42:59;4.90;;;1.85;;
11222;SDS011;5668;52.012;8.724;2022-07-22T04:45:26;2.78;;;1.65;;
11222;SDS011;5668;52.012;8.724;2022-07-22T04:47:54;2.63;;;1.70;;
11222;SDS011;5668;52.012;8.724;2022-07-22T04:50:22;3.45;;;1.70;;
11222;SDS011;5668;52.012;8.724;2022-07-22T04:52:49;3.67;;;1.58;;
11222;SDS011;5668;52.012;8.724;2022-07-22T04:55:17;2.35;;;1.55;;
11222;SDS011;5668;52.012;8.724;2022-07-22T04:57:44;2.45;;;1.73;;
11222;SDS011;5668;52.012;8.724;2022-07-22T05:00:12;3.28;;;1.80;;
11222;SDS011;5668;52.012;8.724;2022-07-22T05:02:40;3.92;;;1.85;;
11222;SDS011;5668;52.012;8.724;2022-07-22T05:05:09;2.53;;;1.60;;
11222;SDS011;5668;52.012;8.724;2022-07-22T05:07:37;4.88;;;1.52;;
11222;SDS011;5668;52.012;8.724;2022-07-22T05:10:05;3.55;;;2.08;;
11222;SDS011;5668;52.012;8.724;2022-07-22T05:12:34;3.72;;;1.80;;
11222;SDS011;5668;52.012;8.724;2022-07-22T05:15:02;2.72;;;1.50;;
11222;SDS011;5668;52.012;8.724;2022-07-22T05:17:30;2.80;;;1.70;;
11222;SDS011;5668;52.012;8.724;2022-07-22T05:19:57;3.83;;;1.90;;
11222;SDS011;5668;52.012;8.724;2022-07-22T05:22:26;3.55;;;2.17;;
11222;SDS011;5668;52.012;8.724;2022-07-22T05:24:53;1.95;;;1.80;;
11222;SDS011;5668;52.012;8.724;2022-07-22T05:27:20;1.95;;;1.83;;
11222;SDS011;5668;52.012;8.724;2022-07-22T05:29:47;3.22;;;1.88;;
11222;SDS011;5668;52.012;8.724;2022-07-22T05:32:15;5.10;;;1.90;;
11222;SDS011;5668;52.012;8.724;2022-07-22T05:34:42;3.42;;;2.15;;
11222;SDS011;5668;52.012;8.724;2022-07-22T05:37:09;2.53;;;2.10;;
11222;SDS011;5668;52.012;8.724;2022-07-22T05:39:38;3.38;;;2.13;;
11222;SDS011;5668;52.012;8.724;2022-07-22T05:42:05;6.78;;;2.55;;
11222;SDS011;5668;52.012;8.724;2022-07-22T05:44:32;2.83;;;2.28;;
11222;SDS011;5668;52.012;8.724;2022-07-22T05:47:00;2.95;;;2.35;;
11222;SDS011;5668;52.012;8.724;2022-07-22T05:49:27;4.03;;;2.35;;
11222;SDS011;5668;52.012;8.724;2022-07-22T05:51:54;4.80;;;2.50;;
11222;SDS011;5668;52.012;8.724;2022-07-22T05:54:25;2.95;;;2.22;;
11222;SDS011;5668;52.012;8.724;2022-07-22T05:56:53;2.75;;;1.95;;
11222;SDS011;5668;52.012;8.724;2022-07-22T05:59:21;2.50;;;2.30;;
11222;SDS011;5668;52.012;8.724;2022-07-22T06:01:48;3.17;;;2.00;;
11222;SDS011;5668;52.012;8.724;2022-07-22T06:04:15;4.55;;;2.30;;
11222;SDS011;5668;52.012;8.724;2022-07-22T06:06:42;2.97;;;2.10;;
11222;SDS011;5668;52.012;8.724;2022-07-22T06:09:10;4.00;;;2.08;;
11222;SDS011;5668;52.012;8.724;2022-07-22T06:11:37;4.32;;;1.80;;
11222;SDS011;5668;52.012;8.724;2022-07-22T06:14:06;2.75;;;2.00;;
11222;SDS011;5668;52.012;8.724;2022-07-22T06:16:33;4.50;;;2.20;;
11222;SDS011;5668;52.012;8.724;2022-07-22T06:19:00;3.42;;;2.05;;
11222;SDS011;5668;52.012;8.724;2022-07-22T06:21:28;6.30;;;2.13;;
11222;SDS011;5668;52.012;8.724;2022-07-22T06:23:55;3.00;;;2.33;;
11222;SDS011;5668;52.012;8.724;2022-07-22T06:26:22;2.60;;;2.17;;
11222;SDS011;5668;52.012;8.724;2022-07-22T06:28:49;3.42;;;1.90;;
11222;SDS011;5668;52.012;8.724;2022-07-22T06:31:18;3.22;;;2.20;;
11222;SDS011;5668;52.012;8.724;2022-07-22T06:33:45;4.00;;;2.25;;
11222;SDS011;5668;52.012;8.724;2022-07-22T06:36:12;2.53;;;2.10;;
11222;SDS011;5668;52.012;8.724;2022-07-22T06:38:40;4.40;;;2.33;;
11222;SDS011;5668;52.012;8.724;2022-07-22T06:41:07;5.70;;;2.55;;
11222;SDS011;5668;52.012;8.724;2022-07-22T06:43:35;4.72;;;2.70;;
11222;SDS011;5668;52.012;8.724;2022-07-22T06:46:02;3.85;;;2.70;;
11222;SDS011;5668;52.012;8.724;2022-07-22T06:48:32;4.47;;;2.80;;
11222;SDS011;5668;52.012;8.724;2022-07-22T06:51:00;5.78;;;2.42;;
11222;SDS011;5668;52.012;8.724;2022-07-22T06:53:28;4.65;;;2.40;;
11222;SDS011;5668;52.012;8.724;2022-07-22T06:55:57;4.25;;;2.67;;
11222;SDS011;5668;52.012;8.724;2022-07-22T06:58:25;2.88;;;2.60;;
11222;SDS011;5668;52.012;8.724;2022-07-22T07:00:53;5.80;;;2.58;;
11222;SDS011;5668;52.012;8.724;2022-07-22T07:03:21;3.00;;;2.70;;
11222;SDS011;5668;52.012;8.724;2022-07-22T07:05:51;3.67;;;2.70;;
11222;SDS011;5668;52.012;8.724;2022-07-22T07:08:19;4.10;;;2.45;;
11222;SDS011;5668;52.012;8.724;2022-07-22T07:10:46;6.03;;;2.63;;
11222;SDS011;5668;52.012;8.724;2022-07-22T07:13:13;3.20;;;2.60;;
11222;SDS011;5668;52.012;8.724;2022-07-22T07:15:41;4.50;;;2.47;;
11222;SDS011;5668;52.012;8.724;2022-07-22T07:18:08;4.13;;;2.53;;
11222;SDS011;5668;52.012;8.724;2022-07-22T07:20:36;4.80;;;2.70;;
11222;SDS011;5668;52.012;8.724;2022-07-22T07:23:04;4.55;;;2.50;;
11222;SDS011;5668;52.012;8.724;2022-07-22T07:25:31;2.78;;;2.53;;
11222;SDS011;5668;52.012;8.724;2022-07-22T07:28:00;3.95;;;2.40;;
11222;SDS011;5668;52.012;8.724;2022-07-22T07:30:27;3.80;;;2.47;;
11222;SDS011;5668;52.012;8.724;2022-07-22T07:32:54;2.85;;;2.33;;
11222;SDS011;5668;52.012;8.724;2022-07-22T07:35:21;3.92;;;2.35;;
11222;SDS011;5668;52.012;8.724;2022-07-22T07:37:49;3.58;;;2.30;;
11222;SDS011;5668;52.012;8.724;2022-07-22T07:40:19;5.15;;;2.40;;
11222;SDS011;5668;52.012;8.724;2022-07-22T07:42:47;3.17;;;2.40;;
11222;SDS011;5668;52.012;8.724;2022-07-22T07:45:14;3.53;;;2.50;;
11222;SDS011;5668;52.012;8.724;2022-07-22T07:47:41;7.25;;;2.85;;
11222;SDS011;5668;52.012;8.724;2022-07-22T07:50:09;6.00;;;3.00;;
11222;SDS011;5668;52.012;8.724;2022-07-22T07:52:38;9.75;;;3.20;;
11222;SDS011;5668;52.012;8.724;2022-07-22T07:55:06;7.90;;;2.92;;
11222;SDS011;5668;52.012;8.724;2022-07-22T07:57:35;5.25;;;2.80;;
11222;SDS011;5668;52.012;8.724;2022-07-22T08:00:05;6.25;;;2.78;;
11222;SDS011;5668;52.012;8.724;2022-07-22T08:02:35;6.68;;;2.45;;
11222;SDS011;5668;52.012;8.724;2022-07-22T08:05:03;6.07;;;2.83;;
11222;SDS011;5668;52.012;8.724;2022-07-22T08:07:31;9.00;;;3.33;;
11222;SDS011;5668;52.012;8.724;2022-07-22T08:09:58;6.85;;;3.33;;
11222;SDS011;5668;52.012;8.724;2022-07-22T08:12:25;4.65;;;2.80;;
11222;SDS011;5668;52.012;8.724;2022-07-22T08:14:54;6.93;;;2.78;;
11222;SDS011;5668;52.012;8.724;2022-07-22T08:17:22;6.00;;;3.05;;
11222;SDS011;5668;52.012;8.724;2022-07-22T08:19:49;6.80;;;3.10;;
11222;SDS011;5668;52.012;8.724;2022-07-22T08:22:16;8.75;;;3.38;;
11222;SDS011;5668;52.012;8.724;2022-07-22T08:24:43;9.20;;;2.80;;
11222;SDS011;5668;52.012;8.724;2022-07-22T08:27:10;4.57;;;2.78;;
11222;SDS011;5668;52.012;8.724;2022-07-22T08:29:38;5.70;;;2.97;;
11222;SDS011;5668;52.012;8.724;2022-07-22T08:32:06;4.35;;;2.80;;
11222;SDS011;5668;52.012;8.724;2022-07-22T08:34:34;5.82;;;2.80;;
11222;SDS011;5668;52.012;8.724;2022-07-22T08:37:01;6.07;;;2.97;;
11222;SDS011;5668;52.012;8.724;2022-07-22T08:39:28;5.15;;;2.83;;
11222;SDS011;5668;52.012;8.724;2022-07-22T08:41:56;4.93;;;2.45;;
11222;SDS011;5668;52.012;8.724;2022-07-22T08:44:23;4.32;;;2.70;;
11222;SDS011;5668;52.012;8.724;2022-07-22T08:46:50;7.57;;;3.10;;
11222;SDS011;5668;52.012;8.724;2022-07-22T08:49:19;6.45;;;2.60;;
11222;SDS011;5668;52.012;8.724;2022-07-22T08:51:47;4.07;;;2.72;;
11222;SDS011;5668;52.012;8.724;2022-07-22T08:54:14;5.45;;;3.05;;
11222;SDS011;5668;52.012;8.724;2022-07-22T08:56:41;7.45;;;3.05;;
11222;SDS011;5668;52.012;8.724;2022-07-22T08:59:11;6.85;;;3.08;;
11222;SDS011;5668;52.012;8.724;2022-07-22T09:01:38;7.43;;;3.47;;
11222;SDS011;5668;52.012;8.724;2022-07-22T09:04:35;5.97;;;3.10;;
11222;SDS011;5668;52.012;8.724;2022-07-22T09:07:23;4.40;;;2.83;;
11222;SDS011;5668;52.012;8.724;2022-07-22T09:09:51;2.78;;;2.17;;
11222;SDS011;5668;52.012;8.724;2022-07-22T09:12:18;3.63;;;2.20;;
11222;SDS011;5668;52.012;8.724;2022-07-22T09:14:47;2.78;;;1.80;;
11222;SDS011;5668;52.012;8.724;2022-07-22T09:17:22;2.75;;;2.17;;
11222;SDS011;5668;52.012;8.724;2022-07-22T09:19:53;3.47;;;2.20;;
11222;SDS011;5668;52.012;8.724;2022-07-22T09:22:30;2.35;;;2.15;;
11222;SDS011;5668;52.012;8.724;2022-07-22T09:25:18;4.00;;;2.33;;
11222;SDS011;5668;52.012;8.724;2022-07-22T09:27:55;4.63;;;2.58;;
11222;SDS011;5668;52.012;8.724;2022-07-22T09:30:36;3.72;;;2.90;;
11222;SDS011;5668;52.012;8.724;2022-07-22T09:33:05;3.35;;;2.75;;
11222;SDS011;5668;52.012;8.724;2022-07-22T09:35:35;6.25;;;3.30;;
11222;SDS011;5668;52.012;8.724;2022-07-22T09:38:03;4.45;;;2.90;;
11222;SDS011;5668;52.012;8.724;2022-07-22T09:40:32;4.82;;;2.95;;
11222;SDS011;5668;52.012;8.724;2022-07-22T09:43:02;4.68;;;3.40;;
11222;SDS011;5668;52.012;8.724;2022-07-22T09:45:30;4.85;;;3.40;;
11222;SDS011;5668;52.012;8.724;2022-07-22T09:47:59;5.97;;;3.50;;
11222;SDS011;5668;52.012;8.724;2022-07-22T09:50:27;4.13;;;2.95;;
11222;SDS011;5668;52.012;8.724;2022-07-22T09:52:58;5.88;;;2.97;;
11222;SDS011;5668;52.012;8.724;2022-07-22T09:55:27;7.05;;;3.03;;
11222;SDS011;5668;52.012;8.724;2022-07-22T09:57:55;6.80;;;3.50;;
11222;SDS011;5668;52.012;8.724;2022-07-22T10:00:24;4.72;;;3.33;;
11222;SDS011;5668;52.012;8.724;2022-07-22T10:02:54;4.60;;;3.17;;
11222;SDS011;5668;52.012;8.724;2022-07-22T10:05:23;6.15;;;3.25;;
11222;SDS011;5668;52.012;8.724;2022-07-22T10:07:52;6.78;;;3.28;;
11222;SDS011;5668;52.012;8.724;2022-07-22T10:10:22;5.50;;;3.20;;
11222;SDS011;5668;52.012;8.724;2022-07-22T10:12:51;4.55;;;2.83;;
11222;SDS011;5668;52.012;8.724;2022-07-22T10:15:19;3.58;;;2.90;;
11222;SDS011;5668;52.012;8.724;2022-07-22T10:17:48;3.70;;;2.67;;
11222;SDS011;5668;52.012;8.724;2022-07-22T10:20:17;3.78;;;2.85;;
11222;SDS011;5668;52.012;8.724;2022-07-22T10:22:56;4.65;;;2.95;;
11222;SDS011;5668;52.012;8.724;2022-07-22T10:25:26;3.60;;;2.83;;
11222;SDS011;5668;52.012;8.724;2022-07-22T10:27:56;5.32;;;3.00;;
11222;SDS011;5668;52.012;8.724;2022-07-22T10:30:25;5.35;;;3.05;;
11222;SDS011;5668;52.012;8.724;2022-07-22T10:33:10;4.47;;;3.70;;
11222;SDS011;5668;52.012;8.724;2022-07-22T10:35:51;5.30;;;3.80;;
11222;SDS011;5668;52.012;8.724;2022-07-22T10:38:20;4.22;;;3.42;;
11222;SDS011;5668;52.012;8.724;2022-07-22T10:40:50;3.95;;;3.25;;
11222;SDS011;5668;52.012;8.724;2022-07-22T10:43:20;4.68;;;3.40;;
11222;SDS011;5668;52.012;8.724;2022-07-22T10:45:49;5.70;;;3.83;;
11222;SDS011;5668;52.012;8.724;2022-07-22T10:48:20;3.28;;;2.97;;
11222;SDS011;5668;52.012;8.724;2022-07-22T10:51:07;5.28;;;3.75;;
11222;SDS011;5668;52.012;8.724;2022-07-22T10:53:40;4.85;;;3.60;;
11222;SDS011;5668;52.012;8.724;2022-07-22T10:56:13;4.32;;;3.20;;
11222;SDS011;5668;52.012;8.724;2022-07-22T10:58:44;4.28;;;3.33;;
11222;SDS011;5668;52.012;8.724;2022-07-22T11:01:16;3.67;;;3.15;;
11222;SDS011;5668;52.012;8.724;2022-07-22T11:03:46;5.38;;;3.53;;
11222;SDS011;5668;52.012;8.724;2022-07-22T11:06:16;5.72;;;3.58;;
11222;SDS011;5668;52.012;8.724;2022-07-22T11:08:46;4.75;;;3.70;;
11222;SDS011;5668;52.012;8.724;2022-07-22T11:11:16;3.90;;;3.50;;
11222;SDS011;5668;52.012;8.724;2022-07-22T11:13:44;4.90;;;3.30;;
11222;SDS011;5668;52.012;8.724;2022-07-22T11:16:19;4.82;;;2.90;;
11222;SDS011;5668;52.012;8.724;2022-07-22T11:18:49;4.97;;;3.00;;
11222;SDS011;5668;52.012;8.724;2022-07-22T11:21:18;3.78;;;3.13;;
11222;SDS011;5668;52.012;8.724;2022-07-22T11:23:48;5.65;;;3.10;;
11222;SDS011;5668;52.012;8.724;2022-07-22T11:26:18;4.68;;;3.40;;
11222;SDS011;5668;52.012;8.724;2022-07-22T11:28:50;5.15;;;4.10;;
11222;SDS011;5668;52.012;8.724;2022-07-22T11:31:18;3.97;;;3.40;;
11222;SDS011;5668;52.012;8.724;2022-07-22T11:33:45;5.57;;;3.70;;
11222;SDS011;5668;52.012;8.724;2022-07-22T11:36:13;6.18;;;3.70;;
11222;SDS011;5668;52.012;8.724;2022-07-22T11:38:42;3.92;;;3.40;;
11222;SDS011;5668;52.012;8.724;2022-07-22T11:41:11;4.63;;;3.90;;
11222;SDS011;5668;52.012;8.724;2022-07-22T11:43:42;4.50;;;4.10;;
11222;SDS011;5668;52.012;8.724;2022-07-22T11:46:11;5.57;;;4.15;;
11222;SDS011;5668;52.012;8.724;2022-07-22T11:48:38;4.82;;;4.10;;
11222;SDS011;5668;52.012;8.724;2022-07-22T11:51:07;4.63;;;4.00;;
11222;SDS011;5668;52.012;8.724;2022-07-22T11:53:36;6.65;;;4.40;;
11222;SDS011;5668;52.012;8.724;2022-07-22T11:56:03;6.88;;;4.00;;
11222;SDS011;5668;52.012;8.724;2022-07-22T11:58:36;6.05;;;4.07;;
11222;SDS011;5668;52.012;8.724;2022-07-22T12:01:06;5.78;;;3.90;;
11222;SDS011;5668;52.012;8.724;2022-07-22T12:03:35;4.40;;;3.58;;
11222;SDS011;5668;52.012;8.724;2022-07-22T12:06:04;3.35;;;3.05;;
11222;SDS011;5668;52.012;8.724;2022-07-22T12:08:33;4.68;;;3.22;;
11222;SDS011;5668;52.012;8.724;2022-07-22T12:11:05;5.20;;;3.72;;
11222;SDS011;5668;52.012;8.724;2022-07-22T12:13:33;6.22;;;3.78;;
11222;SDS011;5668;52.012;8.724;2022-07-22T12:16:07;3.67;;;2.60;;
11222;SDS011;5668;52.012;8.724;2022-07-22T12:18:52;4.35;;;3.58;;
11222;SDS011;5668;52.012;8.724;2022-07-22T12:21:22;4.25;;;3.08;;
11222;SDS011;5668;52.012;8.724;2022-07-22T12:23:54;6.43;;;2.97;;
11222;SDS011;5668;52.012;8.724;2022-07-22T12:29:15;4.80;;;3.00;;
11222;SDS011;5668;52.012;8.724;2022-07-22T12:31:45;5.30;;;3.00;;
11222;SDS011;5668;52.012;8.724;2022-07-22T12:34:14;5.00;;;3.00;;
11222;SDS011;5668;52.012;8.724;2022-07-22T12:36:43;4.75;;;3.05;;
11222;SDS011;5668;52.012;8.724;2022-07-22T12:39:12;3.50;;;2.92;;
11222;SDS011;5668;52.012;8.724;2022-07-22T12:41:45;4.32;;;3.20;;
11222;SDS011;5668;52.012;8.724;2022-07-22T12:44:15;5.95;;;3.42;;
11222;SDS011;5668;52.012;8.724;2022-07-22T12:46:48;4.85;;;3.22;;
11222;SDS011;5668;52.012;8.724;2022-07-22T12:49:18;4.57;;;2.80;;
11222;SDS011;5668;52.012;8.724;2022-07-22T12:52:05;3.55;;;2.90;;
11222;SDS011;5668;52.012;8.724;2022-07-22T12:54:37;5.95;;;2.97;;
11222;SDS011;5668;52.012;8.724;2022-07-22T12:57:05;4.07;;;3.03;;
11222;SDS011;5668;52.012;8.724;2022-07-22T12:59:34;5.47;;;3.10;;
11222;SDS011;5668;52.012;8.724;2022-07-22T13:02:03;4.75;;;3.00;;
11222;SDS011;5668;52.012;8.724;2022-07-22T13:04:30;3.65;;;2.60;;
11222;SDS011;5668;52.012;8.724;2022-07-22T13:06:57;4.82;;;3.10;;
11222;SDS011;5668;52.012;8.724;2022-07-22T13:09:25;3.67;;;2.92;;
11222;SDS011;5668;52.012;8.724;2022-07-22T13:11:52;5.00;;;2.92;;
11222;SDS011;5668;52.012;8.724;2022-07-22T13:14:19;6.00;;;2.92;;
11222;SDS011;5668;52.012;8.724;2022-07-22T13:16:47;4.93;;;2.90;;
11222;SDS011;5668;52.012;8.724;2022-07-22T13:19:15;6.78;;;3.10;;
11222;SDS011;5668;52.012;8.724;2022-07-22T13:21:42;5.45;;;2.75;;
11222;SDS011;5668;52.012;8.724;2022-07-22T13:24:10;11.48;;;4.15;;
11222;SDS011;5668;52.012;8.724;2022-07-22T13:26:37;191.30;;;17.00;;
11222;SDS011;5668;52.012;8.724;2022-07-22T13:29:04;253.05;;;23.70;;
11222;SDS011;5668;52.012;8.724;2022-07-22T13:31:32;179.40;;;16.45;;
11222;SDS011;5668;52.012;8.724;2022-07-22T13:33:59;88.05;;;9.88;;
11222;SDS011;5668;52.012;8.724;2022-07-22T13:36:28;120.70;;;10.93;;
11222;SDS011;5668;52.012;8.724;2022-07-22T13:38:57;75.78;;;8.80;;
11222;SDS011;5668;52.012;8.724;2022-07-22T13:41:24;58.83;;;7.55;;
11222;SDS011;5668;52.012;8.724;2022-07-22T13:43:52;52.08;;;6.63;;
11222;SDS011;5668;52.012;8.724;2022-07-22T13:46:19;137.00;;;14.57;;
11222;SDS011;5668;52.012;8.724;2022-07-22T13:48:47;57.83;;;8.15;;
11222;SDS011;5668;52.012;8.724;2022-07-22T13:51:14;53.65;;;7.60;;
11222;SDS011;5668;52.012;8.724;2022-07-22T13:53:43;32.47;;;6.00;;
11222;SDS011;5668;52.012;8.724;2022-07-22T13:56:11;35.05;;;5.63;;
11222;SDS011;5668;52.012;8.724;2022-07-22T13:58:38;49.78;;;6.78;;
11222;SDS011;5668;52.012;8.724;2022-07-22T14:01:06;32.85;;;6.32;;
11222;SDS011;5668;52.012;8.724;2022-07-22T14:03:34;25.70;;;5.55;;
11222;SDS011;5668;52.012;8.724;2022-07-22T14:06:02;65.60;;;9.15;;
11222;SDS011;5668;52.012;8.724;2022-07-22T14:08:30;45.25;;;7.10;;
11222;SDS011;5668;52.012;8.724;2022-07-22T14:10:59;48.25;;;7.72;;
11222;SDS011;5668;52.012;8.724;2022-07-22T14:13:27;28.13;;;4.85;;
11222;SDS011;5668;52.012;8.724;2022-07-22T14:15:54;46.45;;;6.32;;
11222;SDS011;5668;52.012;8.724;2022-07-22T14:18:21;15.80;;;4.35;;
11222;SDS011;5668;52.012;8.724;2022-07-22T14:20:49;13.98;;;3.85;;
11222;SDS011;5668;52.012;8.724;2022-07-22T14:23:16;8.75;;;3.40;;
11222;SDS011;5668;52.012;8.724;2022-07-22T14:25:48;5.35;;;3.88;;
11222;SDS011;5668;52.012;8.724;2022-07-22T14:28:16;6.07;;;2.92;;
11222;SDS011;5668;52.012;8.724;2022-07-22T14:30:44;5.53;;;3.28;;
11222;SDS011;5668;52.012;8.724;2022-07-22T14:33:11;5.45;;;3.10;;
11222;SDS011;5668;52.012;8.724;2022-07-22T14:35:38;6.50;;;3.20;;
11222;SDS011;5668;52.012;8.724;2022-07-22T14:38:06;5.07;;;3.30;;
11222;SDS011;5668;52.012;8.724;2022-07-22T14:40:34;4.85;;;3.35;;
11222;SDS011;5668;52.012;8.724;2022-07-22T14:43:01;4.28;;;2.78;;
11222;SDS011;5668;52.012;8.724;2022-07-22T14:45:29;4.43;;;3.08;;
11222;SDS011;5668;52.012;8.724;2022-07-22T14:47:57;4.90;;;3.03;;
11222;SDS011;5668;52.012;8.724;2022-07-22T14:50:24;5.70;;;3.22;;
11222;SDS011;5668;52.012;8.724;2022-07-22T14:52:52;5.53;;;3.13;;
11222;SDS011;5668;52.012;8.724;2022-07-22T14:55:19;5.72;;;3.30;;
11222;SDS011;5668;52.012;8.724;2022-07-22T14:57:47;4.32;;;2.90;;
11222;SDS011;5668;52.012;8.724;2022-07-22T15:00:14;5.30;;;3.25;;
11222;SDS011;5668;52.012;8.724;2022-07-22T15:02:44;4.22;;;3.38;;
11222;SDS011;5668;52.012;8.724;2022-07-22T15:05:11;5.20;;;3.40;;
11222;SDS011;5668;52.012;8.724;2022-07-22T15:07:38;5.00;;;3.00;;
11222;SDS011;5668;52.012;8.724;2022-07-22T15:10:07;4.28;;;3.00;;
11222;SDS011;5668;52.012;8.724;2022-07-22T15:12:37;5.90;;;3.42;;